createdAt,value
2022-09-23T00:01:02.775Z,101669.03
2022-09-23T00:03:33.053Z,101666.00
2022-09-23T00:06:05.477Z,101660.78
2022-09-23T00:08:35.238Z,101665.44
2022-09-23T00:11:07.040Z,101659.84
2022-09-23T00:13:39.690Z,101661.78
2022-09-23T00:16:15.628Z,101646.88
2022-09-23T00:18:45.172Z,101650.28
2022-09-23T00:21:15.859Z,101654.06
2022-09-23T00:23:44.693Z,101635.09
2022-09-23T00:26:19.179Z,101650.72
2022-09-23T00:28:48.836Z,101643.38
2022-09-23T00:31:21.699Z,101644.16
2022-09-23T00:33:54.805Z,101638.94
2022-09-23T00:36:27.959Z,101643.09
2022-09-23T00:38:57.314Z,101651.28
2022-09-23T00:41:29.334Z,101642.09
2022-09-23T00:44:00.025Z,101615.91
2022-09-23T00:46:36.360Z,101635.50
2022-09-23T00:49:12.234Z,101640.72
2022-09-23T00:51:52.572Z,101624.44
2022-09-23T00:54:27.909Z,101603.28
2022-09-23T00:56:56.897Z,101638.53
2022-09-23T00:59:26.300Z,101627.84
2022-09-23T01:02:00.697Z,101631.59
2022-09-23T01:04:31.166Z,101642.34
2022-09-23T01:07:00.080Z,101625.34
2022-09-23T01:09:29.673Z,101624.28
2022-09-23T01:12:06.047Z,101593.28
2022-09-23T01:14:45.963Z,101598.94
2022-09-23T01:17:28.574Z,101620.34
2022-09-23T01:20:20.612Z,101614.72
2022-09-23T01:23:05.071Z,101616.03
2022-09-23T01:25:49.807Z,101614.50
2022-09-23T01:28:33.427Z,101611.88
2022-09-23T01:31:08.273Z,101612.31
2022-09-23T01:33:46.365Z,101609.16
2022-09-23T01:36:23.409Z,101605.03
2022-09-23T01:38:59.708Z,101599.06
2022-09-23T01:41:47.284Z,101599.22
2022-09-23T01:44:23.015Z,101601.16
2022-09-23T01:47:00.788Z,101591.69
2022-09-23T01:49:39.535Z,101604.78
2022-09-23T01:52:16.007Z,101597.41
2022-09-23T01:54:52.348Z,101602.09
2022-09-23T01:57:31.882Z,101583.41
2022-09-23T02:00:07.957Z,101593.88
2022-09-23T02:02:50.057Z,101582.84
2022-09-23T02:05:25.604Z,101560.06
2022-09-23T02:08:00.033Z,101584.91
2022-09-23T02:10:36.360Z,101579.09
2022-09-23T02:13:10.483Z,101578.22
2022-09-23T02:15:46.116Z,101578.13
2022-09-23T02:18:20.068Z,101440.34
2022-09-23T02:20:54.835Z,101447.41
2022-09-23T02:23:29.238Z,101567.75
2022-09-23T02:26:07.526Z,101570.88
2022-09-23T02:28:48.029Z,101563.31
2022-09-23T02:31:28.035Z,101553.69
2022-09-23T02:34:04.324Z,101557.03
2022-09-23T02:36:41.992Z,101570.16
2022-09-23T02:39:15.056Z,101562.72
2022-09-23T02:41:53.789Z,101549.38
2022-09-23T02:44:24.147Z,101550.03
2022-09-23T02:46:57.108Z,101546.63
2022-09-23T02:49:29.449Z,101524.47
2022-09-23T02:52:04.859Z,101500.75
2022-09-23T02:54:35.436Z,101538.69
2022-09-23T02:57:08.719Z,101540.88
2022-09-23T02:59:40.942Z,101545.16
2022-09-23T03:02:26.653Z,101540.28
2022-09-23T03:05:06.824Z,101546.19
2022-09-23T03:07:49.011Z,101521.50
2022-09-23T03:10:27.299Z,101530.88
2022-09-23T03:13:12.354Z,101531.22
2022-09-23T03:15:53.399Z,101531.22
2022-09-23T03:18:31.730Z,101524.16
2022-09-23T03:21:08.212Z,101535.63
2022-09-23T03:23:41.533Z,101527.44
2022-09-23T03:26:16.423Z,101529.25
2022-09-23T03:28:47.825Z,101522.59
2022-09-23T03:31:18.403Z,101514.47
2022-09-23T03:33:51.514Z,101514.72
2022-09-23T03:36:45.794Z,101530.09
2022-09-23T03:39:24.209Z,101528.78
2022-09-23T03:41:57.064Z,101518.94
2022-09-23T03:44:29.462Z,101476.78
2022-09-23T03:47:00.552Z,101521.25
2022-09-23T03:49:35.558Z,101525.75
2022-09-23T03:52:07.083Z,101515.19
2022-09-23T03:54:36.452Z,101506.41
2022-09-23T03:57:07.318Z,101512.41
2022-09-23T03:59:37.018Z,101500.88
2022-09-23T04:02:07.912Z,101459.00
2022-09-23T04:04:39.148Z,101504.13
2022-09-23T04:07:12.326Z,101473.44
2022-09-23T04:09:41.796Z,101481.00
2022-09-23T04:12:14.799Z,101428.97
2022-09-23T04:14:44.827Z,101491.00
2022-09-23T04:17:15.268Z,101481.44
2022-09-23T04:19:46.196Z,101482.75
2022-09-23T04:22:17.342Z,101472.97
2022-09-23T04:24:47.478Z,101473.88
2022-09-23T04:27:16.861Z,101484.03
2022-09-23T04:29:46.956Z,101475.31
2022-09-23T04:32:17.064Z,101472.16
2022-09-23T04:34:46.791Z,101476.63
2022-09-23T04:37:17.569Z,101479.59
2022-09-23T04:39:46.847Z,101478.22
2022-09-23T04:42:17.783Z,101472.44
2022-09-23T04:44:47.586Z,101477.56
2022-09-23T04:47:19.283Z,101461.41
2022-09-23T04:49:48.802Z,101475.03
2022-09-23T04:52:20.284Z,101474.56
2022-09-23T04:54:50.160Z,101440.63
2022-09-23T04:57:19.692Z,101482.41
2022-09-23T04:59:49.434Z,101484.47
2022-09-23T05:02:21.806Z,101487.75
2022-09-23T05:04:50.740Z,101486.09
2022-09-23T05:07:21.574Z,101437.13
2022-09-23T05:09:50.599Z,101483.59
2022-09-23T05:12:22.245Z,101471.69
2022-09-23T05:14:52.192Z,101493.59
2022-09-23T05:17:22.681Z,101486.69
2022-09-23T05:19:52.240Z,101490.72
2022-09-23T05:22:23.035Z,101500.66
2022-09-23T05:24:52.079Z,101472.84
2022-09-23T05:27:23.967Z,101484.16
2022-09-23T05:29:53.442Z,101481.19
2022-09-23T05:32:22.934Z,101486.69
2022-09-23T05:34:55.806Z,101489.75
2022-09-23T05:37:26.715Z,101486.69
2022-09-23T05:39:59.120Z,101485.78
2022-09-23T05:42:28.859Z,101481.94
2022-09-23T05:44:58.307Z,101486.75
2022-09-23T05:47:27.502Z,101494.34
2022-09-23T05:50:00.002Z,101493.50
2022-09-23T05:52:31.583Z,101490.75
2022-09-23T05:55:02.100Z,101459.00
2022-09-23T05:57:30.823Z,101486.34
2022-09-23T06:00:00.251Z,101485.38
2022-09-23T06:02:29.579Z,101477.00
2022-09-23T06:04:58.921Z,101487.28
2022-09-23T06:07:27.883Z,101278.22
2022-09-23T06:09:58.831Z,101494.53
2022-09-23T06:12:28.307Z,101493.94
2022-09-23T06:14:57.821Z,101498.97
2022-09-23T06:17:28.930Z,101496.91
2022-09-23T06:20:00.788Z,101479.34
2022-09-23T06:22:30.118Z,101494.66
2022-09-23T06:25:02.162Z,101495.88
2022-09-23T06:27:34.835Z,101487.56
2022-09-23T06:30:04.361Z,101486.31
2022-09-23T06:32:34.769Z,101482.66
2022-09-23T06:35:15.801Z,101275.97
2022-09-23T06:37:52.227Z,101489.31
2022-09-23T06:40:24.340Z,101484.28
2022-09-23T06:42:58.767Z,101476.91
2022-09-23T06:45:28.182Z,101479.50
2022-09-23T06:47:58.453Z,101487.44
2022-09-23T06:50:29.169Z,101484.56
2022-09-23T06:52:58.694Z,101462.13
2022-09-23T06:55:29.303Z,101494.06
2022-09-23T06:57:59.908Z,101470.31
2022-09-23T07:00:29.627Z,101472.50
2022-09-23T07:02:59.715Z,101472.50
2022-09-23T07:05:29.522Z,101471.66
2022-09-23T07:07:59.803Z,101475.94
2022-09-23T07:10:32.642Z,101477.63
2022-09-23T07:13:03.425Z,101475.44
2022-09-23T07:15:34.021Z,101463.53
2022-09-23T07:18:03.757Z,101462.22
2022-09-23T07:20:33.478Z,101437.75
2022-09-23T07:23:02.761Z,101427.00
2022-09-23T07:25:34.280Z,101476.09
2022-09-23T07:28:03.374Z,101469.13
2022-09-23T07:30:33.421Z,101472.06
2022-09-23T07:33:20.334Z,101474.63
2022-09-23T07:35:54.282Z,101461.69
2022-09-23T07:38:26.125Z,101472.84
2022-09-23T07:41:02.108Z,101394.09
2022-09-23T07:43:32.242Z,101467.72
2022-09-23T07:46:03.747Z,101477.81
2022-09-23T07:48:34.631Z,101451.00
2022-09-23T07:51:08.861Z,101474.69
2022-09-23T07:53:38.663Z,101475.25
2022-09-23T07:56:10.144Z,101465.72
2022-09-23T07:58:41.625Z,101471.31
2022-09-23T08:01:12.597Z,101475.38
2022-09-23T08:03:44.215Z,101472.88
2022-09-23T08:06:17.470Z,101446.41
2022-09-23T08:08:50.009Z,101452.34
2022-09-23T08:11:24.099Z,101486.84
2022-09-23T08:13:53.180Z,101482.38
2022-09-23T08:16:22.231Z,101450.44
2022-09-23T08:18:51.341Z,101487.59
2022-09-23T08:21:22.021Z,101483.03
2022-09-23T08:23:54.739Z,101475.56
2022-09-23T08:26:25.351Z,101475.56
2022-09-23T08:28:54.761Z,101430.88
2022-09-23T08:31:26.436Z,101469.81
2022-09-23T08:33:57.372Z,101466.47
2022-09-23T08:36:29.423Z,101473.03
2022-09-23T08:38:59.196Z,101476.09
2022-09-23T08:41:38.650Z,101459.75
2022-09-23T08:44:15.089Z,101462.66
2022-09-23T08:46:49.360Z,101464.28
2022-09-23T08:49:28.862Z,101443.31
2022-09-23T08:52:08.273Z,101469.09
2022-09-23T08:54:40.278Z,101477.06
2022-09-23T08:57:21.290Z,101468.34
2022-09-23T08:59:50.669Z,101477.97
2022-09-23T09:02:22.069Z,101432.59
2022-09-23T09:04:56.778Z,101473.75
2022-09-23T09:07:36.759Z,101481.66
2022-09-23T09:10:12.805Z,101482.84
2022-09-23T09:12:45.996Z,101473.09
2022-09-23T09:15:16.330Z,101481.22
2022-09-23T09:17:59.488Z,101478.66
2022-09-23T09:20:40.209Z,101482.16
2022-09-23T09:23:22.590Z,101495.94
2022-09-23T09:25:55.759Z,101408.34
2022-09-23T09:28:32.290Z,101468.44
2022-09-23T09:31:03.882Z,101467.81
2022-09-23T09:33:41.637Z,101472.25
2022-09-23T09:36:20.614Z,101466.34
2022-09-23T09:38:51.112Z,101434.06
2022-09-23T09:41:21.701Z,101475.13
2022-09-23T09:43:57.795Z,101468.63
2022-09-23T09:46:46.064Z,101237.50
2022-09-23T09:49:24.299Z,101464.38
2022-09-23T09:52:13.604Z,101452.53
2022-09-23T09:54:43.513Z,101461.81
2022-09-23T09:57:33.681Z,101449.19
2022-09-23T10:00:35.858Z,101452.41
2022-09-23T10:03:26.775Z,101443.75
2022-09-23T10:05:57.695Z,101444.41
2022-09-23T10:08:31.229Z,101438.88
2022-09-23T10:11:05.456Z,101436.13
2022-09-23T10:13:35.168Z,101408.63
2022-09-23T10:16:07.912Z,101432.38
2022-09-23T10:18:39.413Z,101433.91
2022-09-23T10:21:12.206Z,101433.72
2022-09-23T10:23:43.844Z,101415.78
2022-09-23T10:26:17.528Z,101430.69
2022-09-23T10:28:50.335Z,101433.31
2022-09-23T10:31:25.855Z,101429.09
2022-09-23T10:33:57.391Z,101432.44
2022-09-23T10:36:29.657Z,101375.81
2022-09-23T10:39:17.517Z,101434.53
2022-09-23T10:42:14.389Z,101397.13
2022-09-23T10:45:16.799Z,101426.34
2022-09-23T10:47:58.173Z,101430.47
2022-09-23T10:50:39.085Z,101430.44
2022-09-23T10:53:19.686Z,101429.06
2022-09-23T10:55:59.577Z,101425.38
2022-09-23T10:59:02.092Z,101441.13
2022-09-23T11:01:40.463Z,101436.91
2022-09-23T11:04:41.009Z,101427.13
2022-09-23T11:07:19.278Z,101432.38
2022-09-23T11:10:23.180Z,101425.50
2022-09-23T11:13:09.792Z,101429.22
2022-09-23T11:15:51.790Z,101427.78
2022-09-23T11:18:45.362Z,101415.66
2022-09-23T11:21:38.205Z,101428.66
2022-09-23T11:24:28.126Z,101249.84
2022-09-23T11:27:08.979Z,101433.97
2022-09-23T11:29:59.431Z,101425.34
2022-09-23T11:32:45.665Z,101417.81
2022-09-23T11:35:20.586Z,101407.63
2022-09-23T11:37:56.947Z,101408.78
2022-09-23T11:40:32.070Z,101232.06
2022-09-23T11:43:08.453Z,101388.00
2022-09-23T11:45:46.316Z,101400.53
2022-09-23T11:48:18.171Z,101404.16
2022-09-23T11:50:55.499Z,101395.31
2022-09-23T11:53:36.145Z,101362.94
2022-09-23T11:56:16.547Z,101392.53
2022-09-23T11:59:03.421Z,101390.56
2022-09-23T12:01:37.944Z,101388.88
2022-09-23T12:04:19.986Z,101362.31
2022-09-23T12:06:54.116Z,101374.75
2022-09-23T12:09:53.903Z,101361.78
2022-09-23T12:12:27.374Z,101363.28
2022-09-23T12:15:02.946Z,101219.22
2022-09-23T12:17:51.522Z,101372.84
2022-09-23T12:20:51.417Z,101208.47
2022-09-23T12:23:35.845Z,101372.59
2022-09-23T12:26:09.395Z,101386.81
2022-09-23T12:28:41.966Z,101375.13
2022-09-23T12:31:12.897Z,101373.16
2022-09-23T12:33:42.762Z,101357.22
2022-09-23T12:36:13.303Z,101364.97
2022-09-23T12:38:49.637Z,101345.03
2022-09-23T12:41:28.784Z,101349.94
2022-09-23T12:44:02.744Z,101349.00
2022-09-23T12:46:31.806Z,101355.91
2022-09-23T12:49:03.911Z,101346.16
2022-09-23T12:51:34.861Z,101351.19
2022-09-23T12:54:26.201Z,101338.06
2022-09-23T12:57:10.584Z,101343.88
2022-09-23T12:59:57.563Z,101341.31
2022-09-23T13:02:34.702Z,101342.50
2022-09-23T13:05:39.525Z,101306.63
2022-09-23T13:08:13.394Z,101339.00
2022-09-23T13:10:50.006Z,101339.75
2022-09-23T13:13:27.651Z,101347.38
2022-09-23T13:15:56.704Z,101346.34
2022-09-23T13:18:41.218Z,101326.25
2022-09-23T13:21:19.364Z,101337.31
2022-09-23T13:24:19.487Z,101331.09
2022-09-23T13:26:50.977Z,101321.44
2022-09-23T13:29:28.275Z,101312.88
2022-09-23T13:31:58.449Z,101324.03
2022-09-23T13:34:33.377Z,101323.72
2022-09-23T13:37:21.580Z,101327.53
2022-09-23T13:39:51.098Z,101247.81
2022-09-23T13:42:27.733Z,101321.00
2022-09-23T13:45:00.432Z,101326.50
2022-09-23T13:47:32.097Z,101321.25
2022-09-23T13:50:02.091Z,101321.41
2022-09-23T13:52:34.600Z,101320.28
2022-09-23T13:55:03.298Z,101318.06
2022-09-23T13:57:34.950Z,101285.25
2022-09-23T14:00:18.714Z,101319.22
2022-09-23T14:02:47.908Z,101317.91
2022-09-23T14:05:23.741Z,101270.13
2022-09-23T14:07:53.732Z,101307.94
2022-09-23T14:10:24.683Z,101293.97
2022-09-23T14:12:55.248Z,101291.16
2022-09-23T14:15:25.490Z,101261.59
2022-09-23T14:18:07.370Z,101296.59
2022-09-23T14:20:46.943Z,101279.66
2022-09-23T14:23:18.850Z,101295.50
2022-09-23T14:25:48.616Z,101286.00
2022-09-23T14:28:19.568Z,101287.25
2022-09-23T14:30:53.959Z,101289.06
2022-09-23T14:33:28.751Z,101284.94
2022-09-23T14:36:04.040Z,101284.41
2022-09-23T14:38:53.907Z,101282.53
2022-09-23T14:41:25.430Z,101272.41
2022-09-23T14:43:58.406Z,101278.28
2022-09-23T14:46:29.208Z,101127.03
2022-09-23T14:49:08.458Z,101274.53
2022-09-23T14:51:47.723Z,101270.34
2022-09-23T14:54:37.292Z,101276.25
2022-09-23T14:57:25.380Z,101260.00
2022-09-23T14:59:56.065Z,101286.88
2022-09-23T15:02:35.689Z,101265.06
2022-09-23T15:05:16.939Z,101266.97
2022-09-23T15:07:49.884Z,101258.13
2022-09-23T15:10:23.604Z,101263.38
2022-09-23T15:12:54.394Z,101264.53
2022-09-23T15:15:28.101Z,101265.50
2022-09-23T15:18:05.622Z,101270.03
2022-09-23T15:20:36.496Z,101268.44
2022-09-23T15:23:32.496Z,101264.22
2022-09-23T15:26:06.948Z,101259.81
2022-09-23T15:28:36.437Z,101261.69
2022-09-23T15:31:11.959Z,101257.41
2022-09-23T15:33:45.185Z,101258.25
2022-09-23T15:36:18.561Z,101256.56
2022-09-23T15:38:48.662Z,101098.53
2022-09-23T15:41:17.898Z,101249.41
2022-09-23T15:43:47.195Z,101252.13
2022-09-23T15:46:22.464Z,101249.72
2022-09-23T15:48:58.859Z,101256.16
2022-09-23T15:51:28.593Z,101258.78
2022-09-23T15:53:57.869Z,101251.63
2022-09-23T15:56:27.113Z,101260.69
2022-09-23T15:58:56.119Z,101261.53
2022-09-23T16:01:29.586Z,101255.72
2022-09-23T16:04:04.089Z,101249.22
2022-09-23T16:06:36.334Z,101261.44
2022-09-23T16:09:07.135Z,101261.22
2022-09-23T16:11:38.331Z,101274.81
2022-09-23T16:14:11.440Z,101275.84
2022-09-23T16:16:42.556Z,101278.78
2022-09-23T16:19:13.896Z,101290.38
2022-09-23T16:21:44.766Z,101285.84
2022-09-23T16:24:18.089Z,101301.09
2022-09-23T16:26:49.201Z,101274.34
2022-09-23T16:29:19.419Z,101280.56
2022-09-23T16:31:48.918Z,101281.19
2022-09-23T16:34:21.231Z,101276.84
2022-09-23T16:36:51.302Z,101267.44
2022-09-23T16:39:23.030Z,101266.91
2022-09-23T16:41:52.817Z,101241.13
2022-09-23T16:44:22.917Z,101265.41
2022-09-23T16:46:54.222Z,101261.38
2022-09-23T16:49:27.513Z,101109.13
2022-09-23T16:51:57.617Z,101255.91
2022-09-23T16:54:27.649Z,101257.38
2022-09-23T16:57:01.122Z,101221.91
2022-09-23T16:59:51.714Z,101258.25
2022-09-23T17:02:38.614Z,101262.66
2022-09-23T17:05:11.087Z,101237.06
2022-09-23T17:07:40.137Z,101252.53
2022-09-23T17:10:11.926Z,101230.63
2022-09-23T17:12:41.641Z,101219.03
2022-09-23T17:15:12.670Z,101259.66
2022-09-23T17:17:42.464Z,101248.13
2022-09-23T17:20:14.470Z,101257.81
2022-09-23T17:22:44.570Z,101247.66
2022-09-23T17:25:17.004Z,101249.38
2022-09-23T17:27:49.027Z,101257.38
2022-09-23T17:30:18.083Z,101245.72
2022-09-23T17:32:47.311Z,101257.09
2022-09-23T17:35:17.597Z,101251.00
2022-09-23T17:37:47.633Z,101247.44
2022-09-23T17:40:16.803Z,101246.13
2022-09-23T17:42:45.639Z,101255.50
2022-09-23T17:45:14.771Z,101251.00
2022-09-23T17:47:43.617Z,101245.66
2022-09-23T17:50:19.878Z,101248.34
2022-09-23T17:52:48.667Z,101240.84
2022-09-23T17:55:18.144Z,101211.84
2022-09-23T17:57:51.598Z,101230.47
2022-09-23T18:00:20.691Z,101224.78
2022-09-23T18:02:52.494Z,101233.94
2022-09-23T18:05:23.610Z,101224.19
2022-09-23T18:07:52.452Z,101224.16
2022-09-23T18:10:26.812Z,101152.00
2022-09-23T18:12:55.962Z,101235.13
2022-09-23T18:15:24.784Z,101188.97
2022-09-23T18:17:53.665Z,101197.06
2022-09-23T18:20:24.229Z,101238.75
2022-09-23T18:22:53.040Z,101243.91
2022-09-23T18:25:38.054Z,101246.81
2022-09-23T18:28:07.495Z,101243.50
2022-09-23T18:30:36.319Z,101245.19
2022-09-23T18:33:08.004Z,101238.41
2022-09-23T18:35:39.797Z,101243.50
2022-09-23T18:38:10.410Z,101246.00
2022-09-23T18:40:41.508Z,101234.19
2022-09-23T18:43:11.752Z,101246.34
2022-09-23T18:45:43.249Z,101211.63
2022-09-23T18:48:31.047Z,101238.91
2022-09-23T18:51:04.030Z,101115.19
2022-09-23T18:53:36.655Z,101246.97
2022-09-23T18:56:08.606Z,101095.84
2022-09-23T18:58:39.183Z,101245.84
2022-09-23T19:01:10.973Z,101255.13
2022-09-23T19:03:40.339Z,101264.22
2022-09-23T19:06:13.441Z,101258.22
2022-09-23T19:08:43.359Z,101265.34
2022-09-23T19:11:15.752Z,101264.50
2022-09-23T19:13:45.341Z,101266.38
2022-09-23T19:16:16.830Z,101259.44
2022-09-23T19:18:46.870Z,101260.56
2022-09-23T19:21:20.343Z,101255.06
2022-09-23T19:23:51.293Z,101234.59
2022-09-23T19:26:27.182Z,101242.00
2022-09-23T19:28:57.065Z,101243.72
2022-09-23T19:31:27.230Z,101202.13
2022-09-23T19:33:57.486Z,101246.16
2022-09-23T19:36:29.292Z,101246.81
2022-09-23T19:38:59.677Z,101187.41
2022-09-23T19:41:33.393Z,101242.00
2022-09-23T19:44:07.143Z,101238.72
2022-09-23T19:46:38.899Z,101176.00
2022-09-23T19:49:08.686Z,101234.59
2022-09-23T19:51:41.542Z,101230.19
2022-09-23T19:54:10.422Z,101235.16
2022-09-23T19:56:39.688Z,101237.19
2022-09-23T19:59:09.466Z,101225.63
2022-09-23T20:01:38.525Z,101237.28
2022-09-23T20:04:09.951Z,101235.69
2022-09-23T20:06:39.514Z,101232.63
2022-09-23T20:09:09.990Z,101227.31
2022-09-23T20:11:38.866Z,101230.19
2022-09-23T20:14:07.924Z,101229.63
2022-09-23T20:16:37.869Z,101227.50
2022-09-23T20:19:07.108Z,101210.25
2022-09-23T20:21:36.465Z,101217.84
2022-09-23T20:24:06.981Z,101227.81
2022-09-23T20:26:54.442Z,101213.06
2022-09-23T20:29:23.151Z,101215.38
2022-09-23T20:31:51.843Z,101197.84
2022-09-23T20:34:21.248Z,101203.44
2022-09-23T20:36:49.940Z,101214.94
2022-09-23T20:39:19.574Z,101206.88
2022-09-23T20:41:50.504Z,101078.38
2022-09-23T20:44:21.433Z,101215.72
2022-09-23T20:46:51.417Z,101201.28
2022-09-23T20:49:20.864Z,101206.13
2022-09-23T20:51:49.907Z,101168.50
2022-09-23T20:54:21.188Z,101206.97
2022-09-23T20:56:51.356Z,101200.50
2022-09-23T20:59:20.318Z,101203.19
2022-09-23T21:01:53.550Z,101198.91
2022-09-23T21:04:24.965Z,101191.06
2022-09-23T21:06:53.794Z,101199.38
2022-09-23T21:09:22.559Z,101197.84
2022-09-23T21:11:52.882Z,101186.81
2022-09-23T21:14:24.318Z,101196.91
2022-09-23T21:16:54.706Z,101153.41
2022-09-23T21:19:24.426Z,101185.63
2022-09-23T21:21:56.949Z,101189.19
2022-09-23T21:27:22.880Z,100987.78
2022-09-23T21:29:51.605Z,101160.75
2022-09-23T21:32:21.397Z,101155.41
2022-09-23T21:34:50.383Z,101180.72
2022-09-23T21:37:19.058Z,101184.09
2022-09-23T21:40:07.816Z,101176.53
2022-09-23T21:42:38.115Z,101173.25
2022-09-23T21:45:09.575Z,101180.09
2022-09-23T21:47:38.551Z,101182.81
2022-09-23T21:50:08.819Z,101178.03
2022-09-23T21:52:38.112Z,101179.56
2022-09-23T21:55:07.753Z,101175.41
2022-09-23T21:57:38.517Z,101179.44
2022-09-23T22:00:11.044Z,101172.97
2022-09-23T22:02:41.437Z,101167.25
2022-09-23T22:05:11.757Z,101187.00
2022-09-23T22:07:41.868Z,101149.91
2022-09-23T22:10:11.812Z,101172.63
2022-09-23T22:12:43.106Z,101157.25
2022-09-23T22:15:13.091Z,101157.75
2022-09-23T22:17:42.897Z,101168.38
2022-09-23T22:20:15.826Z,101147.88
2022-09-23T22:22:46.111Z,101124.59
2022-09-23T22:25:15.892Z,101152.97
2022-09-23T22:28:01.448Z,101161.66
2022-09-23T22:30:48.750Z,101148.63
2022-09-23T22:33:19.491Z,101169.19
2022-09-23T22:35:49.211Z,101157.19
2022-09-23T22:38:19.276Z,100959.38
2022-09-23T22:40:50.164Z,101145.66
2022-09-23T22:43:20.602Z,101138.50
2022-09-23T22:45:51.677Z,101145.63
2022-09-23T22:48:21.129Z,101148.28
2022-09-23T22:50:52.849Z,101150.59
2022-09-23T22:53:24.486Z,101147.25
2022-09-23T22:55:59.224Z,101145.81
2022-09-23T22:58:32.483Z,101141.31
2022-09-23T23:01:02.570Z,101136.59
2022-09-23T23:03:33.137Z,101134.78
2022-09-23T23:06:03.335Z,101089.09
2022-09-23T23:08:32.864Z,101115.00
2022-09-23T23:11:05.564Z,101124.47
2022-09-23T23:13:35.965Z,101132.75
2022-09-23T23:16:12.511Z,101119.81
2022-09-23T23:18:43.407Z,101143.63
2022-09-23T23:21:14.440Z,101125.28
2022-09-23T23:23:45.661Z,101125.63
2022-09-23T23:26:17.419Z,101100.44
2022-09-23T23:28:48.962Z,101131.91
2022-09-23T23:31:19.566Z,101120.66
2022-09-23T23:33:48.940Z,101126.94
2022-09-23T23:36:20.348Z,101118.03
2022-09-23T23:38:51.757Z,101124.31
2022-09-23T23:41:22.799Z,101116.44
2022-09-23T23:43:57.963Z,101127.84
2022-09-23T23:46:28.551Z,101120.03
2022-09-23T23:48:58.282Z,101122.66
2022-09-23T23:51:28.336Z,101120.94
2022-09-23T23:53:58.749Z,101121.13
2022-09-23T23:56:28.220Z,101122.88
2022-09-23T23:59:00.203Z,101118.41
